createdAt,value
2023-09-01T00:01:01.650Z,24.05
2023-09-01T00:03:28.559Z,24.04
2023-09-01T00:05:55.172Z,24.05
2023-09-01T00:08:21.744Z,24.06
2023-09-01T00:10:48.321Z,24.04
2023-09-01T00:13:14.800Z,24.04
2023-09-01T00:15:42.214Z,24.06
2023-09-01T00:18:08.936Z,24.06
2023-09-01T00:20:36.327Z,24.08
2023-09-01T00:23:05.909Z,24.08
2023-09-01T00:25:32.799Z,24.08
2023-09-01T00:27:59.352Z,24.04
2023-09-01T00:30:28.414Z,24.05
2023-09-01T00:32:54.924Z,24.05
2023-09-01T00:35:21.494Z,24.05
2023-09-01T00:37:48.683Z,24.03
2023-09-01T00:40:15.511Z,24.04
2023-09-01T00:42:42.014Z,24.04
2023-09-01T00:45:09.641Z,24.02
2023-09-01T00:47:36.243Z,24.00
2023-09-01T00:50:08.759Z,24.01
2023-09-01T00:52:36.635Z,24.01
2023-09-01T00:55:03.812Z,24.00
2023-09-01T00:57:30.320Z,24.01
2023-09-01T00:59:57.787Z,24.00
2023-09-01T01:02:24.517Z,23.97
2023-09-01T01:04:51.243Z,23.95
2023-09-01T01:07:39.470Z,23.95
2023-09-01T01:10:29.220Z,23.91
2023-09-01T01:13:00.794Z,23.90
2023-09-01T01:15:28.022Z,23.89
2023-09-01T01:17:56.932Z,23.89
2023-09-01T01:20:31.893Z,23.90
2023-09-01T01:22:58.541Z,23.93
2023-09-01T01:25:25.118Z,23.94
2023-09-01T01:27:51.652Z,23.94
2023-09-01T01:30:18.249Z,23.92
2023-09-01T01:32:45.801Z,23.92
2023-09-01T01:35:12.341Z,23.90
2023-09-01T01:37:45.032Z,23.91
2023-09-01T01:40:12.636Z,23.93
2023-09-01T01:42:40.606Z,23.90
2023-09-01T01:45:07.779Z,23.88
2023-09-01T01:47:34.463Z,23.90
2023-09-01T01:50:01.151Z,23.85
2023-09-01T01:52:27.630Z,23.83
2023-09-01T01:54:54.447Z,23.87
2023-09-01T01:57:21.218Z,23.84
2023-09-01T01:59:47.659Z,23.82
2023-09-01T02:02:14.126Z,23.86
2023-09-01T02:04:40.953Z,23.89
2023-09-01T02:07:08.601Z,23.91
2023-09-01T02:09:35.393Z,23.89
2023-09-01T02:12:01.908Z,23.89
2023-09-01T02:14:28.473Z,23.86
2023-09-01T02:16:55.230Z,23.85
2023-09-01T02:19:22.740Z,23.88
2023-09-01T02:21:49.263Z,23.90
2023-09-01T02:24:15.862Z,23.94
2023-09-01T02:26:42.582Z,23.94
2023-09-01T02:29:09.079Z,23.93
2023-09-01T02:31:36.442Z,23.93
2023-09-01T02:34:05.900Z,23.94
2023-09-01T02:36:36.078Z,23.95
2023-09-01T02:39:05.749Z,23.94
2023-09-01T02:41:32.319Z,23.90
2023-09-01T02:43:58.869Z,23.91
2023-09-01T02:46:25.414Z,23.92
2023-09-01T02:48:52.088Z,23.94
2023-09-01T02:51:18.916Z,23.94
2023-09-01T02:53:45.634Z,23.93
2023-09-01T02:56:12.164Z,23.93
2023-09-01T02:58:38.738Z,23.94
2023-09-01T03:01:09.232Z,23.93
2023-09-01T03:03:36.784Z,23.94
2023-09-01T03:06:07.025Z,23.94
2023-09-01T03:08:33.783Z,23.96
2023-09-01T03:11:00.396Z,23.96
2023-09-01T03:13:27.081Z,23.97
2023-09-01T03:15:57.417Z,23.97
2023-09-01T03:18:24.956Z,23.96
2023-09-01T03:20:54.558Z,23.94
2023-09-01T03:23:21.904Z,23.92
2023-09-01T03:25:57.718Z,23.92
2023-09-01T03:28:24.370Z,23.93
2023-09-01T03:30:50.859Z,23.94
2023-09-01T03:33:17.538Z,23.93
2023-09-01T03:35:45.102Z,23.92
2023-09-01T03:38:11.636Z,23.88
2023-09-01T03:40:38.221Z,23.86
2023-09-01T03:43:06.866Z,23.85
2023-09-01T03:45:33.287Z,23.84
2023-09-01T03:47:59.986Z,23.80
2023-09-01T03:50:26.486Z,23.81
2023-09-01T03:52:53.289Z,23.79
2023-09-01T03:55:19.841Z,23.78
2023-09-01T03:57:46.363Z,23.73
2023-09-01T04:00:13.441Z,23.72
2023-09-01T04:02:39.917Z,23.74
2023-09-01T04:05:06.823Z,23.75
2023-09-01T04:07:33.299Z,23.71
2023-09-01T04:09:59.786Z,23.71
2023-09-01T04:12:26.399Z,23.70
2023-09-01T04:14:52.924Z,23.68
2023-09-01T04:17:19.729Z,23.68
2023-09-01T04:19:49.119Z,23.69
2023-09-01T04:22:15.953Z,23.73
2023-09-01T04:24:42.768Z,23.77
2023-09-01T04:27:09.486Z,23.82
2023-09-01T04:29:38.228Z,23.83
2023-09-01T04:32:05.011Z,23.85
2023-09-01T04:34:31.771Z,23.84
2023-09-01T04:36:58.265Z,23.85
2023-09-01T04:39:24.879Z,23.84
2023-09-01T04:41:51.407Z,23.86
2023-09-01T04:44:17.976Z,23.85
2023-09-01T04:46:44.471Z,23.86
2023-09-01T04:49:11.278Z,23.85
2023-09-01T04:51:37.777Z,23.88
2023-09-01T04:54:04.394Z,23.89
2023-09-01T04:56:32.123Z,23.89
2023-09-01T04:58:58.623Z,23.88
2023-09-01T05:01:25.326Z,23.89
2023-09-01T05:03:51.917Z,23.88
2023-09-01T05:06:18.415Z,23.86
2023-09-01T05:08:45.034Z,23.83
2023-09-01T05:11:12.033Z,23.84
2023-09-01T05:13:38.858Z,23.84
2023-09-01T05:16:08.403Z,23.84
2023-09-01T05:18:35.075Z,23.85
2023-09-01T05:21:01.604Z,23.88
2023-09-01T05:23:32.394Z,23.90
2023-09-01T05:25:58.911Z,23.92
2023-09-01T05:28:25.383Z,23.91
2023-09-01T05:30:51.945Z,23.91
2023-09-01T05:33:18.511Z,23.94
2023-09-01T05:35:45.045Z,23.95
2023-09-01T05:38:11.540Z,23.97
2023-09-01T05:40:39.181Z,23.96
2023-09-01T05:43:06.170Z,23.98
2023-09-01T05:45:32.722Z,23.99
2023-09-01T05:47:59.437Z,24.00
2023-09-01T05:50:26.168Z,24.01
2023-09-01T05:52:52.809Z,24.03
2023-09-01T05:55:19.343Z,24.06
2023-09-01T05:57:45.909Z,24.05
2023-09-01T06:00:13.029Z,24.06
2023-09-01T06:02:39.943Z,24.10
2023-09-01T06:05:07.167Z,24.13
2023-09-01T06:07:33.701Z,24.17
2023-09-01T06:10:00.176Z,24.19
2023-09-01T06:12:26.664Z,24.16
2023-09-01T06:14:53.234Z,24.15
2023-09-01T06:17:26.767Z,24.14
2023-09-01T06:19:59.320Z,24.16
2023-09-01T06:22:25.807Z,24.16
2023-09-01T06:24:52.324Z,24.16
2023-09-01T06:27:18.807Z,24.17
2023-09-01T06:29:45.275Z,24.15
2023-09-01T06:32:13.010Z,24.14
2023-09-01T06:34:39.611Z,24.14
2023-09-01T06:37:06.391Z,24.15
2023-09-01T06:39:32.940Z,24.17
2023-09-01T06:41:59.544Z,24.18
2023-09-01T06:44:26.172Z,24.19
2023-09-01T06:46:52.683Z,24.18
2023-09-01T06:49:19.185Z,24.18
2023-09-01T06:51:45.693Z,24.20
2023-09-01T06:54:12.101Z,24.19
2023-09-01T06:56:38.597Z,24.20
2023-09-01T06:59:05.135Z,24.21
2023-09-01T07:01:31.688Z,24.21
2023-09-01T07:03:58.215Z,24.25
2023-09-01T07:06:24.728Z,24.28
2023-09-01T07:08:51.243Z,24.28
2023-09-01T07:11:20.915Z,24.27
2023-09-01T07:13:48.228Z,24.26
2023-09-01T07:16:15.044Z,24.25
2023-09-01T07:18:41.643Z,24.24
2023-09-01T07:21:08.145Z,24.23
2023-09-01T07:23:34.682Z,24.24
2023-09-01T07:26:01.287Z,24.24
2023-09-01T07:28:28.174Z,24.23
2023-09-01T07:30:54.997Z,24.23
2023-09-01T07:33:21.538Z,24.23
2023-09-01T07:35:48.964Z,24.23
2023-09-01T07:38:16.606Z,24.22
2023-09-01T07:40:44.369Z,24.22
2023-09-01T07:43:10.862Z,24.21
2023-09-01T07:45:37.795Z,24.21
2023-09-01T07:48:21.764Z,24.20
2023-09-01T07:50:49.651Z,24.20
2023-09-01T07:53:16.620Z,24.20
2023-09-01T07:55:43.168Z,24.20
2023-09-01T07:58:09.929Z,24.21
2023-09-01T08:00:38.933Z,24.20
2023-09-01T08:03:07.309Z,24.21
2023-09-01T08:05:33.950Z,24.22
2023-09-01T08:08:00.605Z,24.23
2023-09-01T08:10:27.149Z,24.21
2023-09-01T08:12:53.684Z,24.20
2023-09-01T08:15:20.270Z,24.20
2023-09-01T08:17:46.896Z,24.21
2023-09-01T08:20:14.712Z,24.21
2023-09-01T08:22:41.665Z,24.22
2023-09-01T08:25:08.797Z,24.21
2023-09-01T08:27:35.760Z,24.23
2023-09-01T08:30:02.448Z,24.22
2023-09-01T08:32:29.136Z,24.22
2023-09-01T08:34:55.947Z,24.23
2023-09-01T08:37:22.750Z,24.23
2023-09-01T08:39:49.294Z,24.24
2023-09-01T08:42:17.898Z,24.23
2023-09-01T08:44:44.513Z,24.24
2023-09-01T08:47:11.768Z,24.23
2023-09-01T08:49:38.442Z,24.23
2023-09-01T08:52:05.686Z,24.23
2023-09-01T08:54:32.528Z,24.24
2023-09-01T08:56:59.263Z,24.24
2023-09-01T08:59:29.362Z,24.23
2023-09-01T09:01:56.480Z,24.23
2023-09-01T09:04:23.382Z,24.23
2023-09-01T09:06:49.990Z,24.23
2023-09-01T09:09:16.883Z,24.23
2023-09-01T09:11:57.145Z,24.22
2023-09-01T09:14:24.342Z,24.21
2023-09-01T09:16:51.939Z,24.22
2023-09-01T09:19:20.488Z,24.22
2023-09-01T09:21:47.258Z,24.21
2023-09-01T09:24:22.919Z,24.22
2023-09-01T09:26:56.839Z,24.21
2023-09-01T09:29:23.382Z,24.22
2023-09-01T09:31:49.967Z,24.22
2023-09-01T09:34:16.831Z,24.24
2023-09-01T09:36:43.887Z,24.23
2023-09-01T09:39:23.638Z,24.24
2023-09-01T09:41:50.517Z,24.23
2023-09-01T09:44:24.459Z,24.22
2023-09-01T09:46:51.111Z,24.23
2023-09-01T09:49:18.346Z,24.25
2023-09-01T09:51:46.210Z,24.24
2023-09-01T09:54:14.701Z,24.25
2023-09-01T09:56:42.484Z,24.25
2023-09-01T09:59:11.915Z,24.23
2023-09-01T10:01:40.924Z,24.24
2023-09-01T10:04:08.708Z,24.24
2023-09-01T10:06:35.767Z,24.24
2023-09-01T10:09:04.359Z,24.24
2023-09-01T10:11:31.483Z,24.24
2023-09-01T10:13:58.418Z,24.24
2023-09-01T10:16:25.218Z,24.25
2023-09-01T10:18:53.730Z,24.23
2023-09-01T10:21:21.814Z,24.24
2023-09-01T10:23:49.132Z,24.24
2023-09-01T10:26:18.859Z,24.23
2023-09-01T10:28:55.770Z,24.24
2023-09-01T10:31:22.503Z,24.24
2023-09-01T10:33:49.111Z,24.23
2023-09-01T10:36:15.946Z,24.24
2023-09-01T10:38:42.538Z,24.24
2023-09-01T10:41:09.384Z,24.25
2023-09-01T10:43:39.102Z,24.26
2023-09-01T10:46:15.690Z,24.25
2023-09-01T10:48:48.756Z,24.26
2023-09-01T10:51:15.860Z,24.25
2023-09-01T10:53:42.325Z,24.27
2023-09-01T10:56:09.977Z,24.25
2023-09-01T10:58:40.365Z,24.26
2023-09-01T11:01:25.927Z,24.26
2023-09-01T11:03:52.463Z,24.26
2023-09-01T11:06:19.019Z,24.27
2023-09-01T11:08:59.251Z,24.27
2023-09-01T11:11:26.486Z,24.27
2023-09-01T11:13:55.488Z,24.27
2023-09-01T11:16:22.339Z,24.26
2023-09-01T11:18:59.448Z,24.26
2023-09-01T11:21:26.355Z,24.26
2023-09-01T11:24:02.391Z,24.26
2023-09-01T11:26:30.151Z,24.25
2023-09-01T11:28:57.107Z,24.24
2023-09-01T11:31:23.790Z,24.26
2023-09-01T11:33:54.414Z,24.25
2023-09-01T11:36:21.461Z,24.25
2023-09-01T11:38:48.451Z,24.24
2023-09-01T11:41:17.021Z,24.24
2023-09-01T11:43:43.826Z,24.25
2023-09-01T11:46:13.212Z,24.25
2023-09-01T11:48:39.823Z,24.25
2023-09-01T11:51:07.010Z,24.24
2023-09-01T11:53:34.246Z,24.23
2023-09-01T11:56:04.659Z,24.24
2023-09-01T11:58:34.193Z,24.23
2023-09-01T12:01:10.517Z,24.23
2023-09-01T12:03:39.154Z,24.22
2023-09-01T12:06:32.282Z,24.21
2023-09-01T12:09:18.026Z,24.21
2023-09-01T12:11:59.172Z,24.22
2023-09-01T12:14:30.498Z,24.20
2023-09-01T12:16:57.278Z,24.20
2023-09-01T12:19:24.818Z,24.20
2023-09-01T12:21:51.984Z,24.19
2023-09-01T12:24:18.726Z,24.18
2023-09-01T12:26:45.530Z,24.20
2023-09-01T12:29:12.093Z,24.20
2023-09-01T12:31:38.782Z,24.19
2023-09-01T12:34:05.656Z,24.21
2023-09-01T12:36:32.506Z,24.20
2023-09-01T12:38:59.011Z,24.19
2023-09-01T12:41:25.529Z,24.19
2023-09-01T12:43:51.990Z,24.20
2023-09-01T12:46:18.505Z,24.19
2023-09-01T12:48:45.329Z,24.19
2023-09-01T12:51:13.321Z,24.20
2023-09-01T12:53:40.399Z,24.19
2023-09-01T12:56:12.474Z,24.18
2023-09-01T12:58:39.433Z,24.18
2023-09-01T13:01:07.186Z,24.18
2023-09-01T13:03:34.236Z,24.18
2023-09-01T13:06:11.371Z,24.19
2023-09-01T13:08:38.416Z,24.18
2023-09-01T13:11:10.197Z,24.18
2023-09-01T13:13:40.444Z,24.18
2023-09-01T13:16:07.616Z,24.17
2023-09-01T13:18:34.421Z,24.17
2023-09-01T13:21:00.905Z,24.18
2023-09-01T13:23:29.756Z,24.17
2023-09-01T13:25:56.336Z,24.17
2023-09-01T13:28:23.173Z,24.16
2023-09-01T13:30:49.970Z,24.17
2023-09-01T13:33:17.499Z,24.16
2023-09-01T13:35:44.953Z,24.17
2023-09-01T13:38:11.476Z,24.17
2023-09-01T13:40:38.725Z,24.15
2023-09-01T13:43:05.384Z,24.15
2023-09-01T13:45:31.933Z,24.15
2023-09-01T13:47:58.422Z,24.15
2023-09-01T13:50:24.971Z,24.15
2023-09-01T13:52:52.528Z,24.15
2023-09-01T13:55:19.031Z,24.15
2023-09-01T13:57:47.220Z,24.15
2023-09-01T14:00:14.216Z,24.15
2023-09-01T14:02:40.801Z,24.15
2023-09-01T14:05:07.579Z,24.14
2023-09-01T14:07:34.111Z,24.15
2023-09-01T14:10:00.750Z,24.16
2023-09-01T14:12:27.521Z,24.15
2023-09-01T14:14:54.016Z,24.14
2023-09-01T14:17:20.641Z,24.15
2023-09-01T14:19:47.165Z,24.15
2023-09-01T14:22:13.723Z,24.16
2023-09-01T14:24:40.252Z,24.15
2023-09-01T14:27:06.910Z,24.14
2023-09-01T14:29:36.728Z,24.14
2023-09-01T14:32:03.421Z,24.15
2023-09-01T14:34:30.054Z,24.15
2023-09-01T14:36:57.902Z,24.16
2023-09-01T14:39:24.440Z,24.15
2023-09-01T14:41:50.953Z,24.15
2023-09-01T14:44:17.504Z,24.15
2023-09-01T14:46:44.089Z,24.14
2023-09-01T14:49:10.645Z,24.14
2023-09-01T14:51:37.220Z,24.14
2023-09-01T14:54:03.768Z,24.14
2023-09-01T14:56:30.595Z,24.14
2023-09-01T14:58:57.436Z,24.14
2023-09-01T15:01:24.487Z,24.14
2023-09-01T15:03:51.209Z,24.14
2023-09-01T15:06:18.042Z,24.14
2023-09-01T15:08:44.610Z,24.15
2023-09-01T15:11:11.098Z,24.15
2023-09-01T15:13:37.637Z,24.15
2023-09-01T15:16:04.548Z,24.15
2023-09-01T15:18:31.385Z,24.14
2023-09-01T15:21:04.058Z,24.14
2023-09-01T15:23:30.745Z,24.16
2023-09-01T15:25:57.553Z,24.15
2023-09-01T15:28:24.214Z,24.16
2023-09-01T15:30:50.696Z,24.15
2023-09-01T15:33:17.396Z,24.16
2023-09-01T15:35:44.193Z,24.17
2023-09-01T15:38:10.703Z,24.16
2023-09-01T15:40:37.315Z,24.16
2023-09-01T15:43:04.382Z,24.16
2023-09-01T15:45:30.992Z,24.16
2023-09-01T15:47:57.808Z,24.17
2023-09-01T15:50:35.409Z,24.17
2023-09-01T15:53:10.684Z,24.18
2023-09-01T15:55:39.146Z,24.17
2023-09-01T15:58:06.607Z,24.18
2023-09-01T16:00:35.199Z,24.18
2023-09-01T16:03:01.861Z,24.19
2023-09-01T16:05:29.666Z,24.19
2023-09-01T16:07:56.444Z,24.19
2023-09-01T16:10:22.966Z,24.19
2023-09-01T16:12:49.403Z,24.20
2023-09-01T16:15:15.883Z,24.21
2023-09-01T16:17:42.415Z,24.21
2023-09-01T16:20:09.330Z,24.21
2023-09-01T16:22:36.071Z,24.21
2023-09-01T16:25:02.715Z,24.21
2023-09-01T16:27:29.353Z,24.22
2023-09-01T16:29:55.984Z,24.22
2023-09-01T16:32:22.825Z,24.22
2023-09-01T16:34:49.450Z,24.22
2023-09-01T16:37:16.235Z,24.21
2023-09-01T16:39:42.738Z,24.22
2023-09-01T16:42:09.538Z,24.24
2023-09-01T16:44:37.864Z,24.21
2023-09-01T16:47:04.517Z,24.24
2023-09-01T16:49:32.344Z,24.24
2023-09-01T16:51:58.887Z,24.23
2023-09-01T16:54:25.395Z,24.23
2023-09-01T16:56:52.205Z,24.23
2023-09-01T16:59:18.761Z,24.23
2023-09-01T17:01:45.459Z,24.23
2023-09-01T17:04:12.032Z,24.21
2023-09-01T17:06:38.589Z,24.21
2023-09-01T17:09:05.402Z,24.21
2023-09-01T17:11:31.900Z,24.22
2023-09-01T17:13:58.407Z,24.21
2023-09-01T17:16:24.884Z,24.22
2023-09-01T17:18:51.350Z,24.22
2023-09-01T17:21:17.937Z,24.23
2023-09-01T17:23:44.743Z,24.22
2023-09-01T17:26:11.221Z,24.22
2023-09-01T17:28:38.471Z,24.22
2023-09-01T17:31:05.128Z,24.21
2023-09-01T17:33:32.269Z,24.21
2023-09-01T17:35:58.958Z,24.21
2023-09-01T17:38:25.462Z,24.21
2023-09-01T17:40:52.844Z,24.22
2023-09-01T17:43:19.534Z,24.21
2023-09-01T17:45:46.384Z,24.22
2023-09-01T17:48:12.889Z,24.20
2023-09-01T17:50:40.693Z,24.21
2023-09-01T17:53:07.216Z,24.20
2023-09-01T17:55:33.711Z,24.21
2023-09-01T17:58:00.279Z,24.21
2023-09-01T18:00:26.790Z,24.20
2023-09-01T18:02:56.320Z,24.20
2023-09-01T18:05:23.005Z,24.20
2023-09-01T18:37:01.991Z,24.18
2023-09-01T18:43:14.416Z,24.16
2023-09-01T18:45:43.543Z,24.16
2023-09-01T18:48:25.925Z,24.17
2023-09-01T18:51:41.430Z,24.16
2023-09-01T18:54:45.529Z,24.18
2023-09-01T18:57:15.484Z,24.16
2023-09-01T18:59:42.226Z,24.16
2023-09-01T19:02:29.051Z,24.16
2023-09-01T19:04:56.034Z,24.15
2023-09-01T19:07:22.597Z,24.16
2023-09-01T19:09:49.029Z,24.15
2023-09-01T19:12:16.720Z,24.15
2023-09-01T19:14:43.154Z,24.15
2023-09-01T19:17:09.978Z,24.15
2023-09-01T19:19:36.862Z,24.14
2023-09-01T19:22:03.531Z,24.14
2023-09-01T19:24:31.630Z,24.14
2023-09-01T19:26:59.196Z,24.12
2023-09-01T19:29:26.190Z,24.14
2023-09-01T19:31:52.789Z,24.13
2023-09-01T19:34:20.499Z,24.13
2023-09-01T19:36:49.723Z,24.13
2023-09-01T19:39:19.583Z,24.14
2023-09-01T19:41:46.094Z,24.14
2023-09-01T19:44:12.796Z,24.13
2023-09-01T19:46:39.640Z,24.11
2023-09-01T19:49:10.120Z,24.11
2023-09-01T19:51:40.363Z,24.13
2023-09-01T19:54:07.207Z,24.10
2023-09-01T19:56:34.582Z,24.11
2023-09-01T19:59:02.323Z,24.11
2023-09-01T20:01:32.532Z,24.10
2023-09-01T20:03:59.596Z,24.11
2023-09-01T20:06:27.342Z,24.09
2023-09-01T20:08:54.509Z,24.11
2023-09-01T20:11:22.338Z,24.11
2023-09-01T20:13:50.037Z,24.13
2023-09-01T20:16:17.357Z,24.13
2023-09-01T20:18:43.978Z,24.12
2023-09-01T20:21:10.688Z,24.11
2023-09-01T20:23:37.143Z,24.09
2023-09-01T20:26:03.568Z,24.09
2023-09-01T20:28:29.986Z,24.07
2023-09-01T20:30:56.547Z,24.08
2023-09-01T20:33:23.042Z,24.08
2023-09-01T20:35:49.472Z,24.06
2023-09-01T20:38:16.037Z,24.07
2023-09-01T20:40:42.576Z,24.07
2023-09-01T20:43:09.387Z,24.07
2023-09-01T20:45:41.947Z,24.07
2023-09-01T20:48:08.947Z,24.06
2023-09-01T20:50:36.046Z,24.06
2023-09-01T20:53:02.586Z,24.08
2023-09-01T20:55:29.099Z,24.08
2023-09-01T20:57:55.647Z,24.06
2023-09-01T21:00:24.697Z,24.07
2023-09-01T21:02:51.239Z,24.08
2023-09-01T21:05:20.844Z,24.08
2023-09-01T21:07:49.635Z,24.06
2023-09-01T21:10:16.261Z,24.06
2023-09-01T21:12:42.854Z,24.06
2023-09-01T21:15:10.341Z,24.05
2023-09-01T21:17:37.054Z,24.06
2023-09-01T21:20:04.677Z,24.06
2023-09-01T21:22:31.165Z,24.07
2023-09-01T21:24:57.620Z,24.05
2023-09-01T21:27:25.196Z,24.05
2023-09-01T21:29:52.458Z,24.05
2023-09-01T21:32:22.020Z,24.05
2023-09-01T21:34:54.357Z,24.06
2023-09-01T21:37:21.805Z,24.04
2023-09-01T21:39:49.106Z,24.03
2023-09-01T21:42:15.627Z,24.03
2023-09-01T21:44:42.121Z,24.04
2023-09-01T21:47:08.908Z,24.04
2023-09-01T21:49:35.354Z,24.03
2023-09-01T21:52:02.142Z,24.04
2023-09-01T21:54:28.628Z,24.03
2023-09-01T21:56:55.067Z,24.04
2023-09-01T21:59:21.526Z,24.04
2023-09-01T22:01:48.070Z,24.04
2023-09-01T22:04:14.553Z,24.03
2023-09-01T22:06:41.038Z,24.02
2023-09-01T22:09:07.730Z,24.01
2023-09-01T22:11:34.518Z,23.99
2023-09-01T22:14:01.056Z,23.99
2023-09-01T22:16:28.489Z,23.99
2023-09-01T22:18:55.652Z,23.99
2023-09-01T22:21:23.043Z,23.98
2023-09-01T22:23:50.240Z,23.98
2023-09-01T22:26:16.892Z,23.98
2023-09-01T22:28:43.436Z,24.00
2023-09-01T22:31:10.042Z,24.00
2023-09-01T22:33:36.510Z,24.02
2023-09-01T22:36:03.000Z,24.02
2023-09-01T22:38:30.607Z,24.02
2023-09-01T22:41:00.867Z,24.00
2023-09-01T22:43:27.785Z,24.00
2023-09-01T22:45:55.752Z,23.99
2023-09-01T22:48:22.792Z,23.98
2023-09-01T22:50:49.247Z,23.98
2023-09-01T22:53:16.008Z,23.98
2023-09-01T22:55:42.956Z,23.99
2023-09-01T22:58:09.618Z,23.97
2023-09-01T23:00:36.161Z,23.96
2023-09-01T23:03:02.823Z,23.96
2023-09-01T23:05:29.328Z,23.95
2023-09-01T23:07:59.303Z,23.96
2023-09-01T23:10:25.851Z,23.95
2023-09-01T23:12:52.355Z,23.95
2023-09-01T23:15:18.938Z,23.94
2023-09-01T23:17:45.579Z,23.95
2023-09-01T23:20:12.149Z,23.94
2023-09-01T23:22:38.712Z,23.96
2023-09-01T23:25:05.370Z,23.97
2023-09-01T23:27:31.862Z,23.98
2023-09-01T23:29:58.310Z,23.98
2023-09-01T23:32:26.783Z,23.96
2023-09-01T23:34:53.858Z,23.96
2023-09-01T23:37:20.313Z,23.95
2023-09-01T23:39:46.789Z,23.95
2023-09-01T23:42:13.422Z,23.93
2023-09-01T23:44:39.962Z,23.94
2023-09-01T23:47:06.517Z,23.93
2023-09-01T23:49:33.077Z,23.93
2023-09-01T23:51:59.511Z,23.92
2023-09-01T23:54:26.010Z,23.94
2023-09-01T23:56:52.561Z,23.93
2023-09-01T23:59:19.756Z,23.93
